createdAt,value
2019-05-21T03:21:18.084Z,2728
2019-05-21T03:26:18.167Z,5337
2019-05-21T03:31:18.272Z,7325
2019-05-21T03:36:32.272Z,9561
2019-05-21T03:41:18.593Z,12037
2019-05-21T03:46:18.643Z,12037
2019-05-21T03:50:48.853Z,15738
2019-05-21T03:55:49.011Z,15801
2019-05-21T04:00:49.136Z,17473
2019-05-21T04:05:49.251Z,18677
2019-05-21T04:10:49.368Z,20141
2019-05-21T04:15:49.527Z,21350
2019-05-21T04:20:49.640Z,21906
2019-05-21T04:25:49.640Z,21573
2019-05-21T04:30:49.719Z,22624
2019-05-21T04:35:49.845Z,23806
2019-05-21T04:40:49.912Z,24099
2019-05-21T04:45:50.159Z,24194
2019-05-21T04:51:20.230Z,24543
2019-05-21T04:56:40.314Z,25554
2019-05-21T05:01:40.451Z,24341
2019-05-21T05:06:40.631Z,23985
2019-05-21T05:11:30.745Z,24429
2019-05-21T05:16:40.847Z,25809
2019-05-21T05:21:41.016Z,26999
2019-05-21T05:35:51.367Z,26409
2019-05-21T05:40:41.557Z,26896
2019-05-21T05:45:51.758Z,27400
2019-05-21T05:50:41.825Z,27120
2019-05-21T06:01:22.278Z,26559
2019-05-21T06:11:22.631Z,27174
2019-05-21T06:16:22.710Z,27243
2019-05-21T06:21:22.867Z,27178
2019-05-21T06:26:22.945Z,27073
2019-05-21T06:31:23.142Z,26849
2019-05-21T06:36:23.247Z,26659
2019-05-21T06:41:23.282Z,25799
2019-05-21T06:46:23.565Z,26272
2019-05-21T06:51:23.544Z,27408
2019-05-21T06:56:23.608Z,27587
2019-05-21T07:01:28.458Z,27882
2019-05-21T07:06:23.812Z,28176
2019-05-21T07:11:23.948Z,28669
2019-05-21T07:16:24.031Z,28833
2019-05-21T07:21:24.193Z,29021
2019-05-21T07:26:24.352Z,29648
2019-05-21T07:31:24.457Z,30034
2019-05-21T07:36:24.507Z,30232
2019-05-21T07:41:24.607Z,30433
2019-05-21T07:46:24.800Z,30491
2019-05-21T07:51:24.864Z,30691
2019-05-21T07:56:15.026Z,31043
2019-05-21T08:01:15.176Z,31220
2019-05-21T08:06:15.352Z,31278
2019-05-21T08:11:15.388Z,31469
2019-05-21T08:16:15.627Z,32018
2019-05-21T08:21:15.797Z,32437
2019-05-21T08:26:16.001Z,32049
2019-05-21T08:31:16.065Z,32023
2019-05-21T08:41:16.512Z,31673
2019-05-21T08:46:16.648Z,32466
2019-05-21T08:51:16.710Z,32298
2019-05-21T08:56:16.780Z,32944
2019-05-21T09:06:16.945Z,33515
2019-05-21T11:31:30.033Z,32973
2019-05-21T11:41:30.251Z,31979
2019-05-21T11:56:30.549Z,31060
2019-05-21T12:11:30.911Z,30582
2019-05-21T12:31:31.367Z,31609
2019-05-21T12:41:31.503Z,31077
2019-05-21T12:51:31.755Z,29912
2019-05-21T13:01:32.064Z,31535
2019-05-21T13:11:32.244Z,29833
2019-05-21T13:21:32.437Z,28553
2019-05-21T13:31:32.654Z,28602
2019-05-21T13:51:33.080Z,29097
2019-05-21T14:01:40.434Z,28938
2019-05-21T14:06:33.404Z,28771
2019-05-21T14:11:23.519Z,28061
2019-05-21T14:15:53.697Z,27357
2019-05-21T14:25:53.950Z,26620
2019-05-21T15:05:54.794Z,28247
2019-05-21T15:11:24.904Z,27987
2019-05-21T15:16:25.080Z,27871
2019-05-21T15:21:25.220Z,27673
2019-05-21T15:26:25.328Z,27437
2019-05-21T15:36:25.602Z,27836
2019-05-21T15:46:25.848Z,25730
2019-05-21T15:51:25.977Z,25178
2019-05-21T15:56:26.136Z,24247
2019-05-21T16:01:26.181Z,23466
2019-05-21T16:11:28.833Z,23167
2019-05-21T16:16:26.471Z,23236
2019-05-21T16:21:26.554Z,23481
2019-05-21T16:26:26.616Z,23830
2019-05-21T16:31:26.821Z,24430
2019-05-21T16:36:27.063Z,24448
2019-05-21T16:41:27.090Z,24437
2019-05-21T16:46:27.137Z,24898
2019-05-21T16:51:27.259Z,25306
2019-05-21T16:56:27.390Z,25877
2019-05-21T17:01:27.503Z,27591
2019-05-21T17:06:37.664Z,28181
2019-05-21T17:11:27.791Z,28204
2019-05-21T17:16:27.923Z,28313
2019-05-21T17:21:27.973Z,27640
2019-05-21T17:26:38.155Z,27197
2019-05-21T17:31:28.205Z,25902
2019-05-21T17:41:28.348Z,23167
2019-05-21T17:46:28.465Z,21468
2019-05-21T17:51:28.512Z,19572
2019-05-21T18:01:38.741Z,17430
2019-05-21T18:06:28.863Z,16323
2019-05-21T18:11:28.945Z,14832
2019-05-21T18:16:29.074Z,14333
2019-05-21T18:21:39.121Z,13541
2019-05-21T18:54:29.901Z,2184
